createdAt,value
2019-02-11T00:00:03.761Z,95221.79
2019-02-11T00:02:32.347Z,95213.29
2019-02-11T00:05:01.024Z,95216.04
2019-02-11T00:07:29.606Z,95223.91
2019-02-11T00:09:58.194Z,95224.71
2019-02-11T00:12:26.854Z,95221.30
2019-02-11T00:14:55.499Z,95218.16
2019-02-11T00:17:24.086Z,95218.16
2019-02-11T00:19:52.667Z,95225.69
2019-02-11T00:22:21.246Z,95232.61
2019-02-11T00:24:49.834Z,95230.48
2019-02-11T00:27:18.419Z,95234.05
2019-02-11T00:29:47.000Z,95232.75
2019-02-11T00:32:15.578Z,95232.80
2019-02-11T00:34:44.173Z,95239.72
2019-02-11T00:37:12.754Z,95241.73
2019-02-11T00:39:41.370Z,95255.58
2019-02-11T00:42:10.939Z,95254.30
2019-02-11T00:44:39.531Z,95270.42
2019-02-11T00:47:08.739Z,95276.21
2019-02-11T00:49:37.361Z,95272.19
2019-02-11T00:52:05.983Z,95282.71
2019-02-11T00:54:34.579Z,95277.62
2019-02-11T00:57:03.164Z,95282.94
2019-02-11T00:59:31.741Z,95276.50
2019-02-11T01:02:00.322Z,95281.97
2019-02-11T01:04:29.037Z,95278.44
2019-02-11T01:06:57.966Z,95272.93
2019-02-11T01:09:26.657Z,95283.37
2019-02-11T01:11:55.302Z,95280.17
2019-02-11T01:14:23.867Z,95304.95
2019-02-11T01:16:52.448Z,95284.84
2019-02-11T01:19:21.030Z,95288.70
2019-02-11T01:21:49.608Z,95315.71
2019-02-11T01:24:18.190Z,95300.26
2019-02-11T01:26:46.776Z,95291.91
2019-02-11T01:29:15.360Z,95305.09
2019-02-11T01:31:43.943Z,95320.22
2019-02-11T01:34:12.527Z,95316.99
2019-02-11T01:36:41.126Z,95306.41
2019-02-11T01:39:09.970Z,95308.95
2019-02-11T01:41:38.611Z,95297.08
2019-02-11T01:44:07.580Z,95293.51
2019-02-11T01:46:36.174Z,95304.44
2019-02-11T01:49:04.753Z,95290.29
2019-02-11T01:51:33.341Z,95304.13
2019-02-11T01:54:01.980Z,95294.18
2019-02-11T01:56:30.629Z,95300.60
2019-02-11T01:58:59.209Z,95309.30
2019-02-11T02:01:27.794Z,95310.09
2019-02-11T02:03:56.380Z,95317.98
2019-02-11T02:06:24.954Z,95309.29
2019-02-11T02:08:53.537Z,95303.52
2019-02-11T02:11:22.178Z,95300.61
2019-02-11T02:13:50.762Z,95298.67
2019-02-11T02:16:19.389Z,95303.19
2019-02-11T02:18:47.961Z,95303.81
2019-02-11T02:21:16.546Z,95300.95
2019-02-11T02:23:45.131Z,95303.52
2019-02-11T02:26:13.728Z,95313.80
2019-02-11T02:28:42.300Z,95322.13
2019-02-11T02:31:11.083Z,95323.10
2019-02-11T02:33:39.664Z,95322.48
2019-02-11T02:36:08.498Z,95332.42
2019-02-11T02:38:37.071Z,95339.17
2019-02-11T02:41:05.650Z,95368.69
2019-02-11T02:43:34.234Z,95394.81
2019-02-11T02:46:02.852Z,95420.31
2019-02-11T02:48:31.433Z,95407.95
2019-02-11T02:51:00.012Z,95394.20
2019-02-11T02:53:28.591Z,95384.59
2019-02-11T02:55:57.179Z,95379.50
2019-02-11T02:58:25.759Z,95378.56
2019-02-11T03:00:54.414Z,95375.53
2019-02-11T03:03:22.991Z,95379.39
2019-02-11T03:05:52.941Z,95385.23
2019-02-11T03:08:21.832Z,95382.81
2019-02-11T03:10:50.408Z,95393.10
2019-02-11T03:13:18.987Z,95386.03
2019-02-11T03:15:47.642Z,95384.05
2019-02-11T03:18:16.222Z,95388.56
2019-02-11T03:20:44.799Z,95387.27
2019-02-11T03:23:13.380Z,95388.55
2019-02-11T03:25:42.003Z,95391.76
2019-02-11T03:28:11.741Z,95395.66
2019-02-11T03:30:40.375Z,95404.34
2019-02-11T03:33:09.639Z,95396.96
2019-02-11T03:35:38.286Z,95400.81
2019-02-11T03:38:07.143Z,95401.46
2019-02-11T03:40:36.129Z,95396.36
2019-02-11T03:43:04.699Z,95399.25
2019-02-11T03:45:33.319Z,95410.02
2019-02-11T03:48:01.904Z,95412.44
2019-02-11T03:50:30.527Z,95413.40
2019-02-11T03:52:59.109Z,95416.23
2019-02-11T03:55:27.684Z,95412.11
2019-02-11T03:57:56.261Z,95413.35
2019-02-11T04:00:24.853Z,95412.55
2019-02-11T04:02:53.428Z,95415.59
2019-02-11T04:05:22.130Z,95418.49
2019-02-11T04:07:50.711Z,95424.59
2019-02-11T04:10:19.298Z,95425.59
2019-02-11T04:12:47.873Z,95432.99
2019-02-11T04:15:16.453Z,95431.33
2019-02-11T04:17:45.037Z,95437.17
2019-02-11T04:20:13.610Z,95443.52
2019-02-11T04:22:42.198Z,95436.79
2019-02-11T04:25:10.970Z,95444.60
2019-02-11T04:27:39.554Z,95451.17
2019-02-11T04:30:10.128Z,95461.60
2019-02-11T04:32:38.714Z,95459.86
2019-02-11T04:35:07.981Z,95452.17
2019-02-11T04:37:36.559Z,95437.89
2019-02-11T04:40:08.187Z,95460.97
2019-02-11T04:42:36.767Z,95463.27
2019-02-11T04:45:07.376Z,95471.38
2019-02-11T04:47:35.957Z,95476.23
2019-02-11T04:50:06.848Z,95472.33
2019-02-11T04:52:35.466Z,95479.94
2019-02-11T04:55:04.449Z,95472.84
2019-02-11T04:57:33.035Z,95487.05
2019-02-11T05:00:01.663Z,95489.16
2019-02-11T05:02:30.265Z,95493.93
2019-02-11T05:04:58.863Z,95495.54
2019-02-11T05:07:27.451Z,95489.48
2019-02-11T05:09:56.144Z,95501.09
2019-02-11T05:12:24.727Z,95505.33
2019-02-11T05:14:53.304Z,95513.43
2019-02-11T05:17:21.890Z,95514.97
2019-02-11T05:19:50.473Z,95515.73
2019-02-11T05:22:19.048Z,95509.97
2019-02-11T05:24:47.680Z,95505.41
2019-02-11T05:27:16.256Z,95501.99
2019-02-11T05:29:44.831Z,95509.69
2019-02-11T05:32:13.409Z,95518.06
2019-02-11T05:34:41.989Z,95521.28
2019-02-11T05:37:12.016Z,95522.62
2019-02-11T05:39:40.605Z,95522.62
2019-02-11T05:42:09.625Z,95533.13
2019-02-11T05:44:38.262Z,95536.65
2019-02-11T05:47:07.735Z,95542.77
2019-02-11T05:49:36.314Z,95542.72
2019-02-11T05:52:04.897Z,95543.13
2019-02-11T05:54:34.016Z,95542.16
2019-02-11T05:57:02.697Z,95554.39
2019-02-11T05:59:31.272Z,95561.45
2019-02-11T06:01:59.902Z,95559.81
2019-02-11T06:04:28.480Z,95553.71
2019-02-11T06:06:57.125Z,95564.39
2019-02-11T06:09:25.708Z,95569.53
2019-02-11T06:11:54.284Z,95569.81
2019-02-11T06:14:22.938Z,95570.43
2019-02-11T06:16:51.514Z,95574.91
2019-02-11T06:19:20.103Z,95582.41
2019-02-11T06:21:48.679Z,95587.53
2019-02-11T06:24:17.255Z,95588.44
2019-02-11T06:26:45.836Z,95580.02
2019-02-11T06:29:14.458Z,95584.70
2019-02-11T06:31:43.041Z,95594.63
2019-02-11T06:34:11.620Z,95602.67
2019-02-11T06:36:40.256Z,95601.05
2019-02-11T06:39:09.098Z,95605.67
2019-02-11T06:41:37.680Z,95595.19
2019-02-11T06:44:06.263Z,95599.01
2019-02-11T06:46:34.899Z,95606.95
2019-02-11T06:49:03.482Z,95610.20
2019-02-11T06:51:32.062Z,95609.29
2019-02-11T06:54:00.641Z,95604.89
2019-02-11T06:56:29.238Z,95612.98
2019-02-11T06:58:57.815Z,95613.02
2019-02-11T07:01:26.439Z,95619.95
2019-02-11T07:03:55.014Z,95642.92
2019-02-11T07:06:23.597Z,95650.03
2019-02-11T07:08:52.174Z,95651.44
2019-02-11T07:11:20.766Z,95640.13
2019-02-11T07:13:49.345Z,95637.88
2019-02-11T07:16:17.925Z,95654.59
2019-02-11T07:18:46.552Z,95674.39
2019-02-11T07:21:15.177Z,95676.43
2019-02-11T07:23:43.771Z,95675.27
2019-02-11T07:26:12.347Z,95678.21
2019-02-11T07:28:40.931Z,95684.06
2019-02-11T07:31:11.204Z,95683.75
2019-02-11T07:33:39.923Z,95678.47
2019-02-11T07:36:09.151Z,95697.27
2019-02-11T07:38:37.729Z,95693.73
2019-02-11T07:41:06.314Z,95710.16
2019-02-11T07:43:36.461Z,95710.23
2019-02-11T07:46:06.615Z,95715.44
2019-02-11T07:48:35.198Z,95717.22
2019-02-11T07:51:03.793Z,95717.83
2019-02-11T07:53:32.366Z,95717.86
2019-02-11T07:56:00.996Z,95733.37
2019-02-11T07:58:29.576Z,95736.53
2019-02-11T08:00:58.163Z,95738.45
2019-02-11T08:03:26.751Z,95744.48
2019-02-11T08:05:55.374Z,95756.56
2019-02-11T08:08:23.957Z,95762.23
2019-02-11T08:10:52.553Z,95770.44
2019-02-11T08:13:21.133Z,95768.61
2019-02-11T08:15:49.769Z,95768.45
2019-02-11T08:18:18.352Z,95766.28
2019-02-11T08:20:46.981Z,95767.06
2019-02-11T08:23:15.594Z,95770.63
2019-02-11T08:25:44.217Z,95767.17
2019-02-11T08:28:19.418Z,95767.78
2019-02-11T08:30:43.108Z,95768.48
2019-02-11T08:33:11.701Z,95770.35
2019-02-11T08:35:40.288Z,95766.34
2019-02-11T08:38:09.688Z,95777.32
2019-02-11T08:40:38.272Z,95776.66
2019-02-11T08:43:07.240Z,95776.23
2019-02-11T08:45:35.855Z,95780.47
2019-02-11T08:48:04.428Z,95783.05
2019-02-11T08:50:33.007Z,95788.19
2019-02-11T08:53:01.592Z,95789.17
2019-02-11T08:55:30.179Z,95791.75
2019-02-11T08:57:58.761Z,95782.41
2019-02-11T09:00:27.346Z,95789.10
2019-02-11T09:02:55.930Z,95790.46
2019-02-11T09:05:24.592Z,95797.70
2019-02-11T09:07:53.183Z,95798.68
2019-02-11T09:10:21.810Z,95808.86
2019-02-11T09:12:50.390Z,95816.63
2019-02-11T09:15:18.973Z,95822.40
2019-02-11T09:17:47.555Z,95823.13
2019-02-11T09:20:16.144Z,95829.59
2019-02-11T09:22:44.726Z,95835.04
2019-02-11T09:25:13.308Z,95847.52
2019-02-11T09:27:41.947Z,95856.94
2019-02-11T09:30:14.435Z,95850.17
2019-02-11T09:32:43.018Z,95852.57
2019-02-11T09:35:12.027Z,95861.55
2019-02-11T09:37:40.607Z,95868.16
2019-02-11T09:40:15.387Z,95863.81
2019-02-11T09:42:43.974Z,95867.28
2019-02-11T09:45:24.503Z,95867.94
2019-02-11T09:47:53.083Z,95870.66
2019-02-11T09:50:27.664Z,95865.41
2019-02-11T09:52:56.248Z,95869.26
2019-02-11T09:55:27.078Z,95880.72
2019-02-11T09:57:55.659Z,95882.47
2019-02-11T10:00:24.243Z,95882.59
2019-02-11T10:02:52.824Z,95889.06
2019-02-11T10:05:21.426Z,95900.53
2019-02-11T10:07:50.019Z,95905.20
2019-02-11T10:10:18.597Z,95908.44
2019-02-11T10:12:47.182Z,95918.86
2019-02-11T10:15:15.826Z,95926.03
2019-02-11T10:17:44.407Z,95935.04
2019-02-11T10:20:14.631Z,95934.00
2019-02-11T10:22:43.187Z,95939.53
2019-02-11T10:25:18.577Z,95950.25
2019-02-11T10:27:47.158Z,95955.39
2019-02-11T10:30:16.111Z,95963.41
2019-02-11T10:32:44.695Z,95968.95
2019-02-11T10:35:14.385Z,95968.95
2019-02-11T10:37:42.980Z,95975.61
2019-02-11T10:40:13.283Z,95977.95
2019-02-11T10:42:41.857Z,95980.72
2019-02-11T10:45:12.830Z,95983.95
2019-02-11T10:47:43.298Z,95980.20
2019-02-11T10:50:14.596Z,95982.86
2019-02-11T10:52:43.183Z,95993.55
2019-02-11T10:55:15.289Z,95999.59
2019-02-11T10:57:44.078Z,95996.60
2019-02-11T11:00:18.128Z,95990.56
2019-02-11T11:02:46.713Z,95989.30
2019-02-11T11:05:15.393Z,95988.84
2019-02-11T11:07:43.972Z,95988.36
2019-02-11T11:10:32.323Z,95987.13
2019-02-11T11:13:00.915Z,95982.70
2019-02-11T11:15:29.527Z,95993.59
2019-02-11T11:17:58.152Z,95991.61
2019-02-11T11:20:26.941Z,95994.18
2019-02-11T11:22:55.522Z,95989.95
2019-02-11T11:25:24.165Z,95992.98
2019-02-11T11:27:52.751Z,95998.52
2019-02-11T11:30:21.337Z,96008.78
2019-02-11T11:32:49.915Z,96009.46
2019-02-11T11:35:18.842Z,96013.10
2019-02-11T11:37:47.465Z,96014.89
2019-02-11T11:40:17.953Z,96010.75
2019-02-11T11:42:46.636Z,96004.72
2019-02-11T11:45:17.672Z,96005.06
2019-02-11T11:47:46.292Z,96003.81
2019-02-11T11:50:16.364Z,95998.16
2019-02-11T11:52:44.942Z,96001.17
2019-02-11T11:55:21.474Z,95994.56
2019-02-11T11:57:50.047Z,95998.97
2019-02-11T12:00:26.915Z,95999.78
2019-02-11T12:03:02.811Z,96000.96
2019-02-11T12:05:25.802Z,95996.61
2019-02-11T12:07:54.448Z,96000.84
2019-02-11T12:10:23.056Z,96005.42
2019-02-11T12:12:51.715Z,96006.33
2019-02-11T12:15:22.913Z,96010.24
2019-02-11T12:17:51.671Z,96014.75
2019-02-11T12:20:20.330Z,96014.86
2019-02-11T12:22:49.013Z,96009.72
2019-02-11T12:25:18.387Z,96015.00
2019-02-11T12:27:46.983Z,96012.92
2019-02-11T12:30:24.044Z,96007.61
2019-02-11T12:32:54.910Z,96005.75
2019-02-11T12:35:23.031Z,96005.49
2019-02-11T12:37:51.799Z,96012.63
2019-02-11T12:40:20.398Z,96012.28
2019-02-11T12:42:52.381Z,96009.95
2019-02-11T12:45:24.414Z,96009.95
2019-02-11T12:47:53.146Z,96024.13
2019-02-11T12:50:21.746Z,96020.92
2019-02-11T12:52:50.384Z,96012.84
2019-02-11T12:55:19.483Z,96017.05
2019-02-11T12:57:48.143Z,96013.59
2019-02-11T13:00:25.482Z,96015.81
2019-02-11T13:02:54.054Z,96012.92
2019-02-11T13:05:40.297Z,96012.98
2019-02-11T13:07:52.963Z,96009.36
2019-02-11T13:10:21.534Z,96014.86
2019-02-11T13:12:50.166Z,96013.97
2019-02-11T13:15:59.267Z,96001.75
2019-02-11T13:17:50.086Z,96006.97
2019-02-11T13:20:19.333Z,96007.27
2019-02-11T13:22:48.267Z,96011.15
2019-02-11T13:25:20.140Z,96011.15
2019-02-11T13:27:48.809Z,96008.25
2019-02-11T13:30:22.047Z,96008.25
2019-02-11T13:32:50.627Z,96017.95
2019-02-11T13:35:19.253Z,96022.48
2019-02-11T13:37:47.834Z,96018.91
2019-02-11T13:40:16.507Z,96022.16
2019-02-11T13:42:45.139Z,96023.92
2019-02-11T13:45:15.836Z,96026.02
2019-02-11T13:47:53.644Z,96025.34
2019-02-11T13:50:28.666Z,96030.85
2019-02-11T13:52:57.673Z,96036.48
2019-02-11T13:55:30.530Z,96036.00
2019-02-11T13:57:57.261Z,96044.07
2019-02-11T14:00:31.359Z,96050.09
2019-02-11T14:03:02.365Z,96050.09
2019-02-11T14:05:31.583Z,96050.56
2019-02-11T14:08:00.862Z,96059.14
2019-02-11T14:10:29.679Z,96061.88
2019-02-11T14:12:58.360Z,96064.14
2019-02-11T14:15:27.114Z,96068.66
2019-02-11T14:18:11.044Z,96069.98
2019-02-11T14:20:27.645Z,96070.30
2019-02-11T14:22:56.328Z,96068.68
2019-02-11T14:25:41.028Z,96077.24
2019-02-11T14:27:55.229Z,96081.25
2019-02-11T14:30:23.881Z,96087.39
2019-02-11T14:32:52.534Z,96086.74
2019-02-11T14:35:21.437Z,96085.78
2019-02-11T14:37:50.195Z,96087.39
2019-02-11T14:40:18.758Z,96084.80
2019-02-11T14:42:47.338Z,96095.47
2019-02-11T14:45:20.038Z,96098.05
2019-02-11T14:47:48.688Z,96098.97
2019-02-11T14:50:17.355Z,96104.72
2019-02-11T14:52:45.944Z,96110.20
2019-02-11T14:55:14.592Z,96109.55
2019-02-11T14:57:43.242Z,96110.88
2019-02-11T15:00:18.525Z,96118.61
2019-02-11T15:02:47.104Z,96120.33
2019-02-11T15:05:15.985Z,96125.36
2019-02-11T15:07:44.571Z,96131.27
2019-02-11T15:10:13.577Z,96123.99
2019-02-11T15:12:42.170Z,96126.90
2019-02-11T15:15:12.648Z,96130.16
2019-02-11T15:17:43.587Z,96129.83
2019-02-11T15:20:14.858Z,96135.48
2019-02-11T15:22:43.441Z,96140.70
2019-02-11T15:25:17.340Z,96141.10
2019-02-11T15:27:45.931Z,96143.55
2019-02-11T15:30:19.714Z,96141.67
2019-02-11T15:32:48.346Z,96144.13
2019-02-11T15:35:16.948Z,96142.67
2019-02-11T15:37:45.587Z,96142.67
2019-02-11T15:40:16.668Z,96139.77
2019-02-11T15:42:45.252Z,96140.09
2019-02-11T15:45:14.963Z,96147.52
2019-02-11T15:47:43.542Z,96144.08
2019-02-11T15:50:19.092Z,96147.52
2019-02-11T15:52:47.743Z,96146.88
2019-02-11T15:55:18.455Z,96158.51
2019-02-11T15:57:47.038Z,96166.91
2019-02-11T16:00:22.734Z,96162.98
2019-02-11T16:02:51.874Z,96159.03
2019-02-11T16:05:20.713Z,96165.55
2019-02-11T16:07:49.297Z,96168.06
2019-02-11T16:10:20.372Z,96168.98
2019-02-11T16:12:48.956Z,96167.02
2019-02-11T16:15:19.216Z,96176.06
2019-02-11T16:17:48.062Z,96171.69
2019-02-11T16:20:16.644Z,96173.71
2019-02-11T16:22:45.223Z,96169.27
2019-02-11T16:25:15.101Z,96179.52
2019-02-11T16:27:43.685Z,96184.61
2019-02-11T16:30:17.831Z,96193.14
2019-02-11T16:32:46.411Z,96192.77
2019-02-11T16:35:17.408Z,96199.13
2019-02-11T16:37:45.989Z,96204.50
2019-02-11T16:40:29.068Z,96197.78
2019-02-11T16:42:57.647Z,96211.31
2019-02-11T16:45:26.236Z,96209.54
2019-02-11T16:47:54.817Z,96211.59
2019-02-11T16:50:23.394Z,96217.58
2019-02-11T16:52:51.968Z,96231.19
2019-02-11T16:55:20.550Z,96237.37
2019-02-11T16:57:49.170Z,96241.84
2019-02-11T17:00:19.101Z,96245.77
2019-02-11T17:02:47.678Z,96249.48
2019-02-11T17:05:16.385Z,96249.40
2019-02-11T17:07:44.965Z,96257.07
2019-02-11T17:10:14.544Z,96253.44
2019-02-11T17:12:43.161Z,96258.53
2019-02-11T17:15:17.588Z,96264.34
2019-02-11T17:17:46.157Z,96267.63
2019-02-11T17:20:15.843Z,96270.16
2019-02-11T17:22:44.719Z,96277.16
2019-02-11T17:25:14.006Z,96282.98
2019-02-11T17:27:42.600Z,96284.31
2019-02-11T17:30:18.463Z,96288.55
2019-02-11T17:32:47.087Z,96287.38
2019-02-11T17:35:15.699Z,96294.36
2019-02-11T17:37:46.152Z,96300.36
2019-02-11T17:40:19.377Z,96301.98
2019-02-11T17:48:50.919Z,96318.70
2019-02-11T17:51:19.505Z,96325.19
2019-02-11T17:53:48.699Z,96327.40
2019-02-11T17:56:17.487Z,96342.17
2019-02-11T17:58:46.098Z,96343.50
2019-02-11T18:01:14.859Z,96345.59
2019-02-11T18:03:43.446Z,96343.37
2019-02-11T18:06:12.024Z,96341.47
2019-02-11T18:08:40.660Z,96345.86
2019-02-11T18:11:09.536Z,96345.89
2019-02-11T18:13:38.140Z,96347.81
2019-02-11T18:16:08.959Z,96353.73
2019-02-11T18:18:37.544Z,96354.68
2019-02-11T18:21:07.099Z,96347.42
2019-02-11T18:23:39.961Z,96353.17
2019-02-11T18:26:08.816Z,96356.00
2019-02-11T18:28:37.397Z,96363.02
2019-02-11T18:31:05.981Z,96365.92
2019-02-11T18:33:34.570Z,96359.29
2019-02-11T18:36:03.177Z,96359.81
2019-02-11T18:38:31.760Z,96368.50
2019-02-11T18:41:00.382Z,96372.84
2019-02-11T18:43:29.010Z,96376.09
2019-02-11T18:45:57.669Z,96375.98
2019-02-11T18:48:26.258Z,96375.27
2019-02-11T18:50:54.845Z,96380.05
2019-02-11T18:53:23.436Z,96387.48
2019-02-11T18:55:52.015Z,96396.98
2019-02-11T18:58:20.679Z,96398.80
2019-02-11T19:00:49.472Z,96412.16
2019-02-11T19:03:18.027Z,96412.91
2019-02-11T19:05:46.650Z,96408.06
2019-02-11T19:08:15.245Z,96411.30
2019-02-11T19:10:43.837Z,96418.64
2019-02-11T19:13:12.459Z,96419.02
2019-02-11T19:15:41.061Z,96410.57
2019-02-11T19:18:10.392Z,96418.56
2019-02-11T19:20:39.010Z,96414.02
2019-02-11T19:23:07.588Z,96427.51
2019-02-11T19:25:36.162Z,96430.09
2019-02-11T19:28:04.745Z,96438.38
2019-02-11T19:30:33.341Z,96444.05
2019-02-11T19:33:01.979Z,96434.84
2019-02-11T19:35:30.569Z,96444.77
2019-02-11T19:37:59.154Z,96442.72
2019-02-11T19:40:27.736Z,96453.53
2019-02-11T19:42:56.321Z,96451.30
2019-02-11T19:45:25.275Z,96457.39
2019-02-11T19:47:53.853Z,96464.50
2019-02-11T19:50:22.442Z,96462.13
2019-02-11T19:52:51.028Z,96472.31
2019-02-11T19:55:19.660Z,96479.34
2019-02-11T19:57:48.345Z,96483.62
2019-02-11T20:00:21.525Z,96486.81
2019-02-11T20:02:50.608Z,96483.56
2019-02-11T20:05:19.227Z,96485.03
2019-02-11T20:07:47.877Z,96488.20
2019-02-11T20:10:21.309Z,96485.21
2019-02-11T20:12:50.896Z,96489.13
2019-02-11T20:15:22.211Z,96487.25
2019-02-11T20:17:51.035Z,96484.94
2019-02-11T20:20:21.496Z,96490.01
2019-02-11T20:22:50.362Z,96489.75
2019-02-11T20:25:19.276Z,96493.27
2019-02-11T20:27:48.373Z,96500.03
2019-02-11T20:30:29.122Z,96506.34
2019-02-11T20:32:57.924Z,96512.42
2019-02-11T20:35:26.843Z,96519.64
2019-02-11T20:37:55.652Z,96517.08
2019-02-11T20:40:29.099Z,96516.75
2019-02-11T20:42:57.730Z,96518.51
2019-02-11T20:45:29.781Z,96512.00
2019-02-11T20:47:58.375Z,96517.23
2019-02-11T20:50:27.095Z,96517.45
2019-02-11T20:52:55.851Z,96529.13
2019-02-11T20:55:24.545Z,96530.76
2019-02-11T20:58:00.527Z,96532.30
2019-02-11T21:00:29.115Z,96533.24
2019-02-11T21:02:57.840Z,96531.36
2019-02-11T21:05:26.428Z,96544.72
2019-02-11T21:07:55.169Z,96548.06
2019-02-11T21:10:25.013Z,96551.66
2019-02-11T21:12:53.632Z,96557.88
2019-02-11T21:15:22.546Z,96557.19
2019-02-11T21:17:51.186Z,96555.51
2019-02-11T21:20:31.976Z,96554.00
2019-02-11T21:23:00.593Z,96555.67
2019-02-11T21:25:29.248Z,96564.15
2019-02-11T21:27:57.829Z,96567.53
2019-02-11T21:30:26.414Z,96565.50
2019-02-11T21:32:55.099Z,96566.03
2019-02-11T21:35:23.741Z,96564.69
2019-02-11T21:37:52.326Z,96572.42
2019-02-11T21:40:20.960Z,96571.73
2019-02-11T21:42:49.541Z,96578.34
2019-02-11T21:45:18.144Z,96576.91
2019-02-11T21:47:46.955Z,96569.58
2019-02-11T21:50:26.848Z,96560.62
2019-02-11T21:52:52.415Z,96555.14
2019-02-11T21:55:23.814Z,96553.85
2019-02-11T21:57:52.533Z,96556.42
2019-02-11T22:00:22.121Z,96561.06
2019-02-11T22:02:50.867Z,96564.41
2019-02-11T22:05:21.042Z,96562.19
2019-02-11T22:07:49.689Z,96568.23
2019-02-11T22:10:22.862Z,96568.34
2019-02-11T22:12:51.438Z,96553.16
2019-02-11T22:15:20.024Z,96556.67
2019-02-11T22:17:48.614Z,96571.61
2019-02-11T22:20:23.567Z,96586.07
2019-02-11T22:22:52.212Z,96586.48
2019-02-11T22:25:20.827Z,96579.11
2019-02-11T22:27:49.408Z,96568.99
2019-02-11T22:30:20.099Z,96568.41
2019-02-11T22:32:48.684Z,96568.41
2019-02-11T22:35:17.369Z,96570.03
2019-02-11T22:37:46.752Z,96561.83
2019-02-11T22:40:15.336Z,96561.89
2019-02-11T22:42:43.924Z,96564.55
2019-02-11T22:45:17.914Z,96572.41
2019-02-11T22:47:46.501Z,96567.98
2019-02-11T22:50:15.091Z,96563.29
2019-02-11T22:52:43.678Z,96562.59
2019-02-11T22:55:14.543Z,96575.68
2019-02-11T22:57:43.171Z,96573.39
2019-02-11T23:00:15.510Z,96569.89
2019-02-11T23:02:44.099Z,96580.05
2019-02-11T23:05:13.423Z,96574.54
2019-02-11T23:07:42.006Z,96572.17
2019-02-11T23:10:11.479Z,96580.16
2019-02-11T23:12:40.095Z,96589.58
2019-02-11T23:15:09.722Z,96596.93
2019-02-11T23:17:38.304Z,96607.07
2019-02-11T23:20:07.897Z,96609.37
2019-02-11T23:22:36.485Z,96616.73
2019-02-11T23:25:05.351Z,96608.82
2019-02-11T23:27:33.990Z,96614.77
2019-02-11T23:30:02.784Z,96620.48
2019-02-11T23:32:31.368Z,96627.38
2019-02-11T23:35:00.009Z,96625.28
2019-02-11T23:37:28.599Z,96638.56
2019-02-11T23:39:57.194Z,96642.53
2019-02-11T23:42:25.788Z,96642.53
2019-02-11T23:44:54.372Z,96627.26
2019-02-11T23:47:22.946Z,96616.27
2019-02-11T23:49:51.539Z,96622.45
2019-02-11T23:52:20.119Z,96627.83
2019-02-11T23:54:48.709Z,96632.84
2019-02-11T23:57:17.296Z,96637.73
2019-02-11T23:59:45.885Z,96642.24
